sensor_id;sensor_type;location;lat;lon;timestamp;P1;durP1;ratioP1;P2;durP2;ratioP2
3922;SDS011;1976;51.694;6.256;2024-01-11T00:00:16;31.60;;;12.90;;
3922;SDS011;1976;51.694;6.256;2024-01-11T00:02:42;43.60;;;13.53;;
3922;SDS011;1976;51.694;6.256;2024-01-11T00:05:07;28.57;;;13.57;;
3922;SDS011;1976;51.694;6.256;2024-01-11T00:07:34;29.70;;;12.67;;
3922;SDS011;1976;51.694;6.256;2024-01-11T00:10:00;27.27;;;14.13;;
3922;SDS011;1976;51.694;6.256;2024-01-11T00:12:26;31.40;;;12.67;;
3922;SDS011;1976;51.694;6.256;2024-01-11T00:14:52;35.17;;;14.50;;
3922;SDS011;1976;51.694;6.256;2024-01-11T00:17:18;39.77;;;12.13;;
3922;SDS011;1976;51.694;6.256;2024-01-11T00:19:43;26.23;;;12.17;;
3922;SDS011;1976;51.694;6.256;2024-01-11T00:22:09;28.60;;;13.30;;
3922;SDS011;1976;51.694;6.256;2024-01-11T00:24:34;28.37;;;12.60;;
3922;SDS011;1976;51.694;6.256;2024-01-11T00:27:00;41.67;;;13.80;;
3922;SDS011;1976;51.694;6.256;2024-01-11T00:29:26;27.37;;;13.70;;
3922;SDS011;1976;51.694;6.256;2024-01-11T00:31:51;25.57;;;12.97;;
3922;SDS011;1976;51.694;6.256;2024-01-11T00:34:17;29.37;;;12.50;;
3922;SDS011;1976;51.694;6.256;2024-01-11T00:36:42;31.57;;;13.70;;
3922;SDS011;1976;51.694;6.256;2024-01-11T00:39:08;29.40;;;13.27;;
3922;SDS011;1976;51.694;6.256;2024-01-11T00:41:37;33.87;;;13.03;;
3922;SDS011;1976;51.694;6.256;2024-01-11T00:44:02;33.73;;;14.00;;
3922;SDS011;1976;51.694;6.256;2024-01-11T00:46:28;24.33;;;12.03;;
3922;SDS011;1976;51.694;6.256;2024-01-11T00:48:53;26.20;;;13.63;;
3922;SDS011;1976;51.694;6.256;2024-01-11T00:51:19;32.37;;;13.67;;
3922;SDS011;1976;51.694;6.256;2024-01-11T00:53:44;34.27;;;14.03;;
3922;SDS011;1976;51.694;6.256;2024-01-11T00:56:16;35.90;;;14.67;;
3922;SDS011;1976;51.694;6.256;2024-01-11T00:58:43;23.57;;;12.23;;
3922;SDS011;1976;51.694;6.256;2024-01-11T01:01:08;24.80;;;11.97;;
3922;SDS011;1976;51.694;6.256;2024-01-11T01:03:34;35.13;;;14.53;;
3922;SDS011;1976;51.694;6.256;2024-01-11T01:06:00;32.27;;;15.03;;
3922;SDS011;1976;51.694;6.256;2024-01-11T01:08:26;29.60;;;14.20;;
3922;SDS011;1976;51.694;6.256;2024-01-11T01:10:52;31.33;;;14.33;;
3922;SDS011;1976;51.694;6.256;2024-01-11T01:13:17;28.53;;;13.90;;
3922;SDS011;1976;51.694;6.256;2024-01-11T01:15:43;27.83;;;13.67;;
3922;SDS011;1976;51.694;6.256;2024-01-11T01:18:09;28.37;;;13.57;;
3922;SDS011;1976;51.694;6.256;2024-01-11T01:20:34;34.40;;;16.47;;
3922;SDS011;1976;51.694;6.256;2024-01-11T01:23:01;28.80;;;13.40;;
3922;SDS011;1976;51.694;6.256;2024-01-11T01:25:27;35.03;;;13.33;;
3922;SDS011;1976;51.694;6.256;2024-01-11T01:27:52;26.43;;;12.50;;
3922;SDS011;1976;51.694;6.256;2024-01-11T01:30:18;29.53;;;14.27;;
3922;SDS011;1976;51.694;6.256;2024-01-11T01:32:44;28.60;;;13.77;;
3922;SDS011;1976;51.694;6.256;2024-01-11T01:35:10;29.80;;;14.13;;
3922;SDS011;1976;51.694;6.256;2024-01-11T01:37:36;24.47;;;12.20;;
3922;SDS011;1976;51.694;6.256;2024-01-11T01:40:01;27.77;;;14.83;;
3922;SDS011;1976;51.694;6.256;2024-01-11T01:42:28;44.50;;;14.87;;
3922;SDS011;1976;51.694;6.256;2024-01-11T01:44:53;32.50;;;13.90;;
3922;SDS011;1976;51.694;6.256;2024-01-11T01:47:19;41.93;;;14.33;;
3922;SDS011;1976;51.694;6.256;2024-01-11T01:49:45;32.33;;;13.10;;
3922;SDS011;1976;51.694;6.256;2024-01-11T01:52:13;31.30;;;13.97;;
3922;SDS011;1976;51.694;6.256;2024-01-11T01:54:41;23.63;;;13.30;;
3922;SDS011;1976;51.694;6.256;2024-01-11T01:57:07;30.37;;;12.67;;
3922;SDS011;1976;51.694;6.256;2024-01-11T01:59:35;32.70;;;13.60;;
3922;SDS011;1976;51.694;6.256;2024-01-11T02:02:02;32.10;;;14.87;;
3922;SDS011;1976;51.694;6.256;2024-01-11T02:04:29;30.10;;;13.40;;
3922;SDS011;1976;51.694;6.256;2024-01-11T02:06:55;34.07;;;15.17;;
3922;SDS011;1976;51.694;6.256;2024-01-11T02:09:22;32.47;;;13.43;;
3922;SDS011;1976;51.694;6.256;2024-01-11T02:11:49;34.47;;;14.70;;
3922;SDS011;1976;51.694;6.256;2024-01-11T02:14:17;29.80;;;13.40;;
3922;SDS011;1976;51.694;6.256;2024-01-11T02:16:43;40.47;;;13.77;;
3922;SDS011;1976;51.694;6.256;2024-01-11T02:19:10;28.00;;;13.40;;
3922;SDS011;1976;51.694;6.256;2024-01-11T02:21:38;31.80;;;14.20;;
3922;SDS011;1976;51.694;6.256;2024-01-11T02:24:07;24.40;;;13.17;;
3922;SDS011;1976;51.694;6.256;2024-01-11T02:26:33;30.43;;;11.20;;
3922;SDS011;1976;51.694;6.256;2024-01-11T02:28:59;27.93;;;12.80;;
3922;SDS011;1976;51.694;6.256;2024-01-11T02:31:25;23.47;;;12.07;;
3922;SDS011;1976;51.694;6.256;2024-01-11T02:33:54;23.03;;;12.40;;
3922;SDS011;1976;51.694;6.256;2024-01-11T02:36:20;26.97;;;14.23;;
3922;SDS011;1976;51.694;6.256;2024-01-11T02:38:46;32.87;;;13.47;;
3922;SDS011;1976;51.694;6.256;2024-01-11T02:41:14;26.27;;;12.90;;
3922;SDS011;1976;51.694;6.256;2024-01-11T02:43:45;23.67;;;11.97;;
3922;SDS011;1976;51.694;6.256;2024-01-11T02:46:12;27.53;;;12.50;;
3922;SDS011;1976;51.694;6.256;2024-01-11T02:48:38;35.93;;;12.90;;
3922;SDS011;1976;51.694;6.256;2024-01-11T02:51:03;23.03;;;10.97;;
3922;SDS011;1976;51.694;6.256;2024-01-11T02:53:29;25.30;;;12.70;;
3922;SDS011;1976;51.694;6.256;2024-01-11T02:55:59;37.40;;;13.87;;
3922;SDS011;1976;51.694;6.256;2024-01-11T02:58:25;24.60;;;12.07;;
3922;SDS011;1976;51.694;6.256;2024-01-11T03:00:50;29.23;;;12.73;;
3922;SDS011;1976;51.694;6.256;2024-01-11T03:03:16;40.60;;;12.50;;
3922;SDS011;1976;51.694;6.256;2024-01-11T03:05:41;24.37;;;10.70;;
3922;SDS011;1976;51.694;6.256;2024-01-11T03:08:07;33.73;;;12.03;;
3922;SDS011;1976;51.694;6.256;2024-01-11T03:10:32;22.87;;;11.00;;
3922;SDS011;1976;51.694;6.256;2024-01-11T03:12:58;24.67;;;11.70;;
3922;SDS011;1976;51.694;6.256;2024-01-11T03:15:24;29.97;;;11.53;;
3922;SDS011;1976;51.694;6.256;2024-01-11T03:17:50;29.87;;;11.80;;
3922;SDS011;1976;51.694;6.256;2024-01-11T03:20:15;29.20;;;12.40;;
3922;SDS011;1976;51.694;6.256;2024-01-11T03:22:45;24.57;;;10.63;;
3922;SDS011;1976;51.694;6.256;2024-01-11T03:25:11;21.93;;;10.33;;
3922;SDS011;1976;51.694;6.256;2024-01-11T03:27:37;23.57;;;11.00;;
3922;SDS011;1976;51.694;6.256;2024-01-11T03:30:03;26.60;;;12.00;;
3922;SDS011;1976;51.694;6.256;2024-01-11T03:32:29;25.87;;;10.40;;
3922;SDS011;1976;51.694;6.256;2024-01-11T03:34:55;20.50;;;9.50;;
3922;SDS011;1976;51.694;6.256;2024-01-11T03:37:20;37.50;;;13.07;;
3922;SDS011;1976;51.694;6.256;2024-01-11T03:39:46;23.47;;;10.97;;
3922;SDS011;1976;51.694;6.256;2024-01-11T03:42:12;23.00;;;10.33;;
3922;SDS011;1976;51.694;6.256;2024-01-11T03:44:37;24.90;;;10.50;;
3922;SDS011;1976;51.694;6.256;2024-01-11T03:47:03;24.57;;;10.87;;
3922;SDS011;1976;51.694;6.256;2024-01-11T03:49:29;29.80;;;10.20;;
3922;SDS011;1976;51.694;6.256;2024-01-11T03:51:54;26.73;;;9.97;;
3922;SDS011;1976;51.694;6.256;2024-01-11T03:54:20;29.30;;;11.77;;
3922;SDS011;1976;51.694;6.256;2024-01-11T03:56:45;20.90;;;9.43;;
3922;SDS011;1976;51.694;6.256;2024-01-11T03:59:11;19.83;;;10.10;;
3922;SDS011;1976;51.694;6.256;2024-01-11T04:01:40;19.03;;;9.87;;
3922;SDS011;1976;51.694;6.256;2024-01-11T04:04:06;23.13;;;9.27;;
3922;SDS011;1976;51.694;6.256;2024-01-11T04:06:32;21.27;;;10.17;;
3922;SDS011;1976;51.694;6.256;2024-01-11T04:08:58;31.23;;;11.00;;
3922;SDS011;1976;51.694;6.256;2024-01-11T04:11:27;24.53;;;8.40;;
3922;SDS011;1976;51.694;6.256;2024-01-11T04:13:53;21.00;;;10.47;;
3922;SDS011;1976;51.694;6.256;2024-01-11T04:16:18;23.37;;;10.40;;
3922;SDS011;1976;51.694;6.256;2024-01-11T04:18:44;23.07;;;9.10;;
3922;SDS011;1976;51.694;6.256;2024-01-11T04:21:20;41.13;;;10.70;;
3922;SDS011;1976;51.694;6.256;2024-01-11T04:23:49;22.37;;;10.90;;
3922;SDS011;1976;51.694;6.256;2024-01-11T04:26:15;26.97;;;11.40;;
3922;SDS011;1976;51.694;6.256;2024-01-11T04:28:44;18.33;;;9.33;;
3922;SDS011;1976;51.694;6.256;2024-01-11T04:31:11;23.40;;;10.50;;
3922;SDS011;1976;51.694;6.256;2024-01-11T04:33:39;25.00;;;10.77;;
3922;SDS011;1976;51.694;6.256;2024-01-11T04:36:06;23.77;;;11.23;;
3922;SDS011;1976;51.694;6.256;2024-01-11T04:38:33;16.90;;;9.77;;
3922;SDS011;1976;51.694;6.256;2024-01-11T04:40:58;25.00;;;9.47;;
3922;SDS011;1976;51.694;6.256;2024-01-11T04:43:24;18.90;;;10.17;;
3922;SDS011;1976;51.694;6.256;2024-01-11T04:45:49;18.63;;;7.97;;
3922;SDS011;1976;51.694;6.256;2024-01-11T04:48:16;21.80;;;9.77;;
3922;SDS011;1976;51.694;6.256;2024-01-11T04:50:42;20.57;;;9.50;;
3922;SDS011;1976;51.694;6.256;2024-01-11T04:53:08;21.77;;;10.07;;
3922;SDS011;1976;51.694;6.256;2024-01-11T04:55:34;24.67;;;9.90;;
3922;SDS011;1976;51.694;6.256;2024-01-11T04:57:59;22.60;;;10.50;;
3922;SDS011;1976;51.694;6.256;2024-01-11T05:00:25;24.50;;;10.57;;
3922;SDS011;1976;51.694;6.256;2024-01-11T05:02:50;29.23;;;10.60;;
3922;SDS011;1976;51.694;6.256;2024-01-11T05:05:16;21.13;;;10.23;;
3922;SDS011;1976;51.694;6.256;2024-01-11T05:07:42;18.73;;;8.73;;
3922;SDS011;1976;51.694;6.256;2024-01-11T05:10:07;19.77;;;9.80;;
3922;SDS011;1976;51.694;6.256;2024-01-11T05:12:33;17.17;;;8.87;;
3922;SDS011;1976;51.694;6.256;2024-01-11T05:14:59;19.13;;;9.50;;
3922;SDS011;1976;51.694;6.256;2024-01-11T05:17:25;19.17;;;9.60;;
3922;SDS011;1976;51.694;6.256;2024-01-11T05:19:51;19.03;;;10.90;;
3922;SDS011;1976;51.694;6.256;2024-01-11T05:22:17;22.83;;;8.30;;
3922;SDS011;1976;51.694;6.256;2024-01-11T05:24:43;21.23;;;10.03;;
3922;SDS011;1976;51.694;6.256;2024-01-11T05:27:09;27.40;;;9.17;;
3922;SDS011;1976;51.694;6.256;2024-01-11T05:29:34;20.33;;;9.17;;
3922;SDS011;1976;51.694;6.256;2024-01-11T05:32:00;28.17;;;11.63;;
3922;SDS011;1976;51.694;6.256;2024-01-11T05:34:25;27.30;;;9.67;;
3922;SDS011;1976;51.694;6.256;2024-01-11T05:36:51;16.90;;;8.30;;
3922;SDS011;1976;51.694;6.256;2024-01-11T05:39:17;21.00;;;9.70;;
3922;SDS011;1976;51.694;6.256;2024-01-11T05:41:45;24.67;;;8.47;;
3922;SDS011;1976;51.694;6.256;2024-01-11T05:44:11;18.57;;;9.27;;
3922;SDS011;1976;51.694;6.256;2024-01-11T05:46:36;18.20;;;9.67;;
3922;SDS011;1976;51.694;6.256;2024-01-11T05:49:02;20.33;;;9.00;;
3922;SDS011;1976;51.694;6.256;2024-01-11T05:51:28;22.80;;;10.00;;
3922;SDS011;1976;51.694;6.256;2024-01-11T05:53:54;25.10;;;10.33;;
3922;SDS011;1976;51.694;6.256;2024-01-11T05:56:20;22.70;;;9.70;;
3922;SDS011;1976;51.694;6.256;2024-01-11T05:58:46;30.43;;;10.83;;
3922;SDS011;1976;51.694;6.256;2024-01-11T06:01:11;25.37;;;10.80;;
3922;SDS011;1976;51.694;6.256;2024-01-11T06:03:37;19.00;;;8.70;;
3922;SDS011;1976;51.694;6.256;2024-01-11T06:06:04;16.93;;;10.10;;
3922;SDS011;1976;51.694;6.256;2024-01-11T06:08:30;23.33;;;10.60;;
3922;SDS011;1976;51.694;6.256;2024-01-11T06:10:56;18.67;;;9.63;;
3922;SDS011;1976;51.694;6.256;2024-01-11T06:13:22;20.10;;;9.23;;
3922;SDS011;1976;51.694;6.256;2024-01-11T06:15:48;22.73;;;9.00;;
3922;SDS011;1976;51.694;6.256;2024-01-11T06:18:14;19.63;;;8.93;;
3922;SDS011;1976;51.694;6.256;2024-01-11T06:20:40;27.80;;;11.13;;
3922;SDS011;1976;51.694;6.256;2024-01-11T06:23:06;21.17;;;10.10;;
3922;SDS011;1976;51.694;6.256;2024-01-11T06:25:31;24.90;;;9.30;;
3922;SDS011;1976;51.694;6.256;2024-01-11T06:27:57;17.47;;;9.83;;
3922;SDS011;1976;51.694;6.256;2024-01-11T06:30:23;14.50;;;9.20;;
3922;SDS011;1976;51.694;6.256;2024-01-11T06:32:48;29.73;;;11.20;;
3922;SDS011;1976;51.694;6.256;2024-01-11T06:35:14;25.90;;;11.13;;
3922;SDS011;1976;51.694;6.256;2024-01-11T06:37:40;19.00;;;9.50;;
3922;SDS011;1976;51.694;6.256;2024-01-11T06:40:05;18.10;;;9.07;;
3922;SDS011;1976;51.694;6.256;2024-01-11T06:42:33;22.93;;;10.20;;
3922;SDS011;1976;51.694;6.256;2024-01-11T06:44:59;16.77;;;8.00;;
3922;SDS011;1976;51.694;6.256;2024-01-11T06:47:25;22.50;;;9.77;;
3922;SDS011;1976;51.694;6.256;2024-01-11T06:49:50;21.33;;;9.97;;
3922;SDS011;1976;51.694;6.256;2024-01-11T06:52:16;19.63;;;8.83;;
3922;SDS011;1976;51.694;6.256;2024-01-11T06:54:41;25.00;;;11.50;;
3922;SDS011;1976;51.694;6.256;2024-01-11T06:57:07;14.37;;;8.13;;
3922;SDS011;1976;51.694;6.256;2024-01-11T06:59:33;20.40;;;9.10;;
3922;SDS011;1976;51.694;6.256;2024-01-11T07:01:59;19.37;;;10.07;;
3922;SDS011;1976;51.694;6.256;2024-01-11T07:04:24;26.30;;;10.70;;
3922;SDS011;1976;51.694;6.256;2024-01-11T07:06:50;28.10;;;9.40;;
3922;SDS011;1976;51.694;6.256;2024-01-11T07:09:15;26.07;;;10.93;;
3922;SDS011;1976;51.694;6.256;2024-01-11T07:11:42;19.50;;;8.97;;
3922;SDS011;1976;51.694;6.256;2024-01-11T07:14:08;19.40;;;9.30;;
3922;SDS011;1976;51.694;6.256;2024-01-11T07:16:34;16.20;;;9.13;;
3922;SDS011;1976;51.694;6.256;2024-01-11T07:19:00;21.37;;;9.87;;
3922;SDS011;1976;51.694;6.256;2024-01-11T07:21:26;15.40;;;8.10;;
3922;SDS011;1976;51.694;6.256;2024-01-11T07:23:57;25.00;;;10.43;;
3922;SDS011;1976;51.694;6.256;2024-01-11T07:26:24;18.63;;;8.90;;
3922;SDS011;1976;51.694;6.256;2024-01-11T07:28:50;19.47;;;9.10;;
3922;SDS011;1976;51.694;6.256;2024-01-11T07:31:16;13.80;;;8.57;;
3922;SDS011;1976;51.694;6.256;2024-01-11T07:33:42;23.10;;;9.20;;
3922;SDS011;1976;51.694;6.256;2024-01-11T07:36:08;23.83;;;10.00;;
3922;SDS011;1976;51.694;6.256;2024-01-11T07:38:34;18.00;;;8.77;;
3922;SDS011;1976;51.694;6.256;2024-01-11T07:40:59;18.20;;;8.70;;
3922;SDS011;1976;51.694;6.256;2024-01-11T07:43:26;21.17;;;10.90;;
3922;SDS011;1976;51.694;6.256;2024-01-11T07:45:53;17.50;;;9.47;;
3922;SDS011;1976;51.694;6.256;2024-01-11T07:48:19;23.30;;;9.10;;
3922;SDS011;1976;51.694;6.256;2024-01-11T07:50:45;27.53;;;11.27;;
3922;SDS011;1976;51.694;6.256;2024-01-11T07:53:10;19.07;;;8.90;;
3922;SDS011;1976;51.694;6.256;2024-01-11T07:55:36;18.17;;;9.40;;
3922;SDS011;1976;51.694;6.256;2024-01-11T07:58:03;16.60;;;8.90;;
3922;SDS011;1976;51.694;6.256;2024-01-11T08:00:29;18.20;;;9.17;;
3922;SDS011;1976;51.694;6.256;2024-01-11T08:02:54;18.67;;;9.63;;
3922;SDS011;1976;51.694;6.256;2024-01-11T08:05:20;18.20;;;8.80;;
3922;SDS011;1976;51.694;6.256;2024-01-11T08:07:45;18.43;;;9.90;;
3922;SDS011;1976;51.694;6.256;2024-01-11T08:10:11;22.53;;;9.73;;
3922;SDS011;1976;51.694;6.256;2024-01-11T08:12:36;21.67;;;11.73;;
3922;SDS011;1976;51.694;6.256;2024-01-11T08:15:02;18.80;;;11.27;;
3922;SDS011;1976;51.694;6.256;2024-01-11T08:17:28;27.10;;;10.10;;
3922;SDS011;1976;51.694;6.256;2024-01-11T08:19:54;23.63;;;11.90;;
3922;SDS011;1976;51.694;6.256;2024-01-11T08:22:21;19.87;;;10.27;;
3922;SDS011;1976;51.694;6.256;2024-01-11T08:24:47;37.40;;;11.03;;
3922;SDS011;1976;51.694;6.256;2024-01-11T08:27:13;28.87;;;11.57;;
3922;SDS011;1976;51.694;6.256;2024-01-11T08:29:42;17.73;;;9.93;;
3922;SDS011;1976;51.694;6.256;2024-01-11T08:32:07;25.73;;;11.90;;
3922;SDS011;1976;51.694;6.256;2024-01-11T08:34:33;23.30;;;11.17;;
3922;SDS011;1976;51.694;6.256;2024-01-11T08:36:59;25.07;;;11.10;;
3922;SDS011;1976;51.694;6.256;2024-01-11T08:39:24;24.20;;;12.10;;
3922;SDS011;1976;51.694;6.256;2024-01-11T08:41:50;21.27;;;11.73;;
3922;SDS011;1976;51.694;6.256;2024-01-11T08:44:15;23.07;;;11.23;;
3922;SDS011;1976;51.694;6.256;2024-01-11T08:46:41;19.67;;;10.50;;
3922;SDS011;1976;51.694;6.256;2024-01-11T08:49:08;23.20;;;12.10;;
3922;SDS011;1976;51.694;6.256;2024-01-11T08:51:34;22.20;;;10.70;;
3922;SDS011;1976;51.694;6.256;2024-01-11T08:54:00;23.47;;;11.80;;
3922;SDS011;1976;51.694;6.256;2024-01-11T08:56:25;24.23;;;12.37;;
3922;SDS011;1976;51.694;6.256;2024-01-11T08:58:51;22.33;;;11.87;;
3922;SDS011;1976;51.694;6.256;2024-01-11T09:01:17;22.60;;;10.87;;
3922;SDS011;1976;51.694;6.256;2024-01-11T09:03:47;25.90;;;12.60;;
3922;SDS011;1976;51.694;6.256;2024-01-11T09:06:15;22.30;;;12.30;;
3922;SDS011;1976;51.694;6.256;2024-01-11T09:08:41;31.10;;;12.70;;
3922;SDS011;1976;51.694;6.256;2024-01-11T09:11:07;26.37;;;12.93;;
3922;SDS011;1976;51.694;6.256;2024-01-11T09:13:32;27.87;;;12.37;;
3922;SDS011;1976;51.694;6.256;2024-01-11T09:15:58;26.00;;;11.87;;
3922;SDS011;1976;51.694;6.256;2024-01-11T09:18:23;24.83;;;11.83;;
3922;SDS011;1976;51.694;6.256;2024-01-11T09:20:49;26.67;;;12.27;;
3922;SDS011;1976;51.694;6.256;2024-01-11T09:23:15;34.07;;;14.33;;
3922;SDS011;1976;51.694;6.256;2024-01-11T09:25:41;25.87;;;13.80;;
3922;SDS011;1976;51.694;6.256;2024-01-11T09:28:07;24.47;;;12.33;;
3922;SDS011;1976;51.694;6.256;2024-01-11T09:30:32;21.70;;;12.07;;
3922;SDS011;1976;51.694;6.256;2024-01-11T09:32:58;25.10;;;12.13;;
3922;SDS011;1976;51.694;6.256;2024-01-11T09:35:25;25.37;;;13.70;;
3922;SDS011;1976;51.694;6.256;2024-01-11T09:37:50;25.37;;;13.03;;
3922;SDS011;1976;51.694;6.256;2024-01-11T09:40:17;24.80;;;13.70;;
3922;SDS011;1976;51.694;6.256;2024-01-11T09:42:43;27.20;;;13.73;;
3922;SDS011;1976;51.694;6.256;2024-01-11T09:45:09;27.20;;;14.43;;
3922;SDS011;1976;51.694;6.256;2024-01-11T09:47:37;27.43;;;14.20;;
3922;SDS011;1976;51.694;6.256;2024-01-11T09:50:04;28.07;;;14.50;;
3922;SDS011;1976;51.694;6.256;2024-01-11T09:52:30;32.23;;;15.60;;
3922;SDS011;1976;51.694;6.256;2024-01-11T09:54:57;24.60;;;13.63;;
3922;SDS011;1976;51.694;6.256;2024-01-11T09:57:29;21.90;;;14.03;;
3922;SDS011;1976;51.694;6.256;2024-01-11T09:59:57;26.57;;;13.93;;
3922;SDS011;1976;51.694;6.256;2024-01-11T10:02:24;28.40;;;15.20;;
3922;SDS011;1976;51.694;6.256;2024-01-11T10:04:53;27.60;;;14.17;;
3922;SDS011;1976;51.694;6.256;2024-01-11T10:07:19;27.23;;;14.27;;
3922;SDS011;1976;51.694;6.256;2024-01-11T10:09:47;33.17;;;15.20;;
3922;SDS011;1976;51.694;6.256;2024-01-11T10:12:14;30.17;;;16.00;;
3922;SDS011;1976;51.694;6.256;2024-01-11T10:14:40;29.27;;;14.43;;
3922;SDS011;1976;51.694;6.256;2024-01-11T10:17:06;29.70;;;15.43;;
3922;SDS011;1976;51.694;6.256;2024-01-11T10:19:32;30.63;;;15.70;;
3922;SDS011;1976;51.694;6.256;2024-01-11T10:21:57;29.43;;;14.30;;
3922;SDS011;1976;51.694;6.256;2024-01-11T10:24:26;29.93;;;15.27;;
3922;SDS011;1976;51.694;6.256;2024-01-11T10:26:57;32.37;;;17.30;;
3922;SDS011;1976;51.694;6.256;2024-01-11T10:29:32;32.37;;;17.40;;
3922;SDS011;1976;51.694;6.256;2024-01-11T10:32:00;27.87;;;15.27;;
3922;SDS011;1976;51.694;6.256;2024-01-11T10:34:25;30.77;;;17.37;;
3922;SDS011;1976;51.694;6.256;2024-01-11T10:36:51;27.20;;;16.43;;
3922;SDS011;1976;51.694;6.256;2024-01-11T10:39:17;34.00;;;19.27;;
3922;SDS011;1976;51.694;6.256;2024-01-11T10:41:47;29.40;;;16.70;;
3922;SDS011;1976;51.694;6.256;2024-01-11T10:44:19;27.20;;;15.97;;
3922;SDS011;1976;51.694;6.256;2024-01-11T10:46:49;31.13;;;18.10;;
3922;SDS011;1976;51.694;6.256;2024-01-11T10:49:16;44.30;;;17.90;;
3922;SDS011;1976;51.694;6.256;2024-01-11T10:51:49;28.87;;;17.13;;
3922;SDS011;1976;51.694;6.256;2024-01-11T10:54:20;31.07;;;17.47;;
3922;SDS011;1976;51.694;6.256;2024-01-11T10:56:46;28.97;;;16.67;;
3922;SDS011;1976;51.694;6.256;2024-01-11T10:59:13;30.73;;;17.90;;
3922;SDS011;1976;51.694;6.256;2024-01-11T11:01:41;29.03;;;16.90;;
3922;SDS011;1976;51.694;6.256;2024-01-11T11:04:08;30.77;;;17.57;;
3922;SDS011;1976;51.694;6.256;2024-01-11T11:06:35;31.20;;;17.60;;
3922;SDS011;1976;51.694;6.256;2024-01-11T11:09:03;30.13;;;17.10;;
3922;SDS011;1976;51.694;6.256;2024-01-11T11:11:30;34.60;;;16.90;;
3922;SDS011;1976;51.694;6.256;2024-01-11T11:14:00;33.53;;;16.87;;
3922;SDS011;1976;51.694;6.256;2024-01-11T11:16:26;26.17;;;15.97;;
3922;SDS011;1976;51.694;6.256;2024-01-11T11:18:53;32.43;;;16.80;;
3922;SDS011;1976;51.694;6.256;2024-01-11T11:21:20;27.60;;;16.10;;
3922;SDS011;1976;51.694;6.256;2024-01-11T11:23:46;31.13;;;19.17;;
3922;SDS011;1976;51.694;6.256;2024-01-11T11:26:15;30.77;;;17.70;;
3922;SDS011;1976;51.694;6.256;2024-01-11T11:28:42;34.93;;;17.93;;
3922;SDS011;1976;51.694;6.256;2024-01-11T11:31:08;28.40;;;16.70;;
3922;SDS011;1976;51.694;6.256;2024-01-11T11:33:36;27.60;;;17.00;;
3922;SDS011;1976;51.694;6.256;2024-01-11T11:36:02;26.93;;;15.57;;
3922;SDS011;1976;51.694;6.256;2024-01-11T11:38:29;28.17;;;15.53;;
3922;SDS011;1976;51.694;6.256;2024-01-11T11:40:58;27.60;;;15.23;;
3922;SDS011;1976;51.694;6.256;2024-01-11T11:43:29;26.67;;;16.40;;
3922;SDS011;1976;51.694;6.256;2024-01-11T11:45:55;24.83;;;14.83;;
3922;SDS011;1976;51.694;6.256;2024-01-11T11:51:10;22.80;;;14.50;;
3922;SDS011;1976;51.694;6.256;2024-01-11T11:53:37;53.23;;;16.10;;
3922;SDS011;1976;51.694;6.256;2024-01-11T11:56:05;23.27;;;15.13;;
3922;SDS011;1976;51.694;6.256;2024-01-11T11:58:32;23.80;;;13.40;;
3922;SDS011;1976;51.694;6.256;2024-01-11T12:00:59;27.40;;;16.37;;
3922;SDS011;1976;51.694;6.256;2024-01-11T12:03:29;29.17;;;16.30;;
3922;SDS011;1976;51.694;6.256;2024-01-11T12:05:56;22.27;;;14.37;;
3922;SDS011;1976;51.694;6.256;2024-01-11T12:08:23;22.17;;;15.00;;
3922;SDS011;1976;51.694;6.256;2024-01-11T12:10:48;22.33;;;14.33;;
3922;SDS011;1976;51.694;6.256;2024-01-11T12:13:14;26.83;;;15.47;;
3922;SDS011;1976;51.694;6.256;2024-01-11T12:15:40;25.10;;;15.80;;
3922;SDS011;1976;51.694;6.256;2024-01-11T12:18:06;23.10;;;14.40;;
3922;SDS011;1976;51.694;6.256;2024-01-11T12:20:32;23.20;;;15.00;;
3922;SDS011;1976;51.694;6.256;2024-01-11T12:22:58;22.50;;;15.60;;
3922;SDS011;1976;51.694;6.256;2024-01-11T12:25:24;26.57;;;15.30;;
3922;SDS011;1976;51.694;6.256;2024-01-11T12:27:50;23.27;;;15.57;;
3922;SDS011;1976;51.694;6.256;2024-01-11T12:30:21;26.97;;;16.10;;
3922;SDS011;1976;51.694;6.256;2024-01-11T12:32:47;24.93;;;15.60;;
3922;SDS011;1976;51.694;6.256;2024-01-11T12:35:13;21.37;;;14.83;;
3922;SDS011;1976;51.694;6.256;2024-01-11T12:37:38;23.57;;;15.00;;
3922;SDS011;1976;51.694;6.256;2024-01-11T12:40:04;21.07;;;13.77;;
3922;SDS011;1976;51.694;6.256;2024-01-11T12:42:33;20.43;;;14.07;;
3922;SDS011;1976;51.694;6.256;2024-01-11T12:44:59;18.40;;;13.40;;
3922;SDS011;1976;51.694;6.256;2024-01-11T12:47:25;19.97;;;12.27;;
3922;SDS011;1976;51.694;6.256;2024-01-11T12:49:51;20.03;;;12.00;;
3922;SDS011;1976;51.694;6.256;2024-01-11T12:52:17;13.50;;;7.13;;
3922;SDS011;1976;51.694;6.256;2024-01-11T12:54:44;11.17;;;7.70;;
3922;SDS011;1976;51.694;6.256;2024-01-11T12:57:17;13.67;;;8.67;;
3922;SDS011;1976;51.694;6.256;2024-01-11T12:59:44;26.73;;;12.73;;
3922;SDS011;1976;51.694;6.256;2024-01-11T13:02:10;28.60;;;16.70;;
3922;SDS011;1976;51.694;6.256;2024-01-11T13:04:39;31.60;;;14.30;;
3922;SDS011;1976;51.694;6.256;2024-01-11T13:07:05;24.73;;;13.67;;
3922;SDS011;1976;51.694;6.256;2024-01-11T13:09:32;24.50;;;12.80;;
3922;SDS011;1976;51.694;6.256;2024-01-11T13:11:58;26.23;;;14.80;;
3922;SDS011;1976;51.694;6.256;2024-01-11T13:14:24;18.53;;;11.97;;
3922;SDS011;1976;51.694;6.256;2024-01-11T13:16:50;26.97;;;11.37;;
3922;SDS011;1976;51.694;6.256;2024-01-11T13:19:16;15.20;;;9.07;;
3922;SDS011;1976;51.694;6.256;2024-01-11T13:21:41;14.27;;;6.80;;
3922;SDS011;1976;51.694;6.256;2024-01-11T13:24:07;16.17;;;7.27;;
3922;SDS011;1976;51.694;6.256;2024-01-11T13:26:33;11.23;;;6.90;;
3922;SDS011;1976;51.694;6.256;2024-01-11T13:29:01;17.57;;;7.10;;
3922;SDS011;1976;51.694;6.256;2024-01-11T13:31:27;14.97;;;6.47;;
3922;SDS011;1976;51.694;6.256;2024-01-11T13:33:53;9.20;;;5.67;;
3922;SDS011;1976;51.694;6.256;2024-01-11T13:36:21;13.43;;;6.20;;
3922;SDS011;1976;51.694;6.256;2024-01-11T13:38:47;12.33;;;5.63;;
3922;SDS011;1976;51.694;6.256;2024-01-11T13:41:14;11.73;;;5.90;;
3922;SDS011;1976;51.694;6.256;2024-01-11T13:43:41;12.77;;;6.63;;
3922;SDS011;1976;51.694;6.256;2024-01-11T13:46:06;12.20;;;6.10;;
3922;SDS011;1976;51.694;6.256;2024-01-11T13:48:32;14.30;;;6.90;;
3922;SDS011;1976;51.694;6.256;2024-01-11T13:50:58;11.83;;;6.23;;
3922;SDS011;1976;51.694;6.256;2024-01-11T13:53:24;16.40;;;6.30;;
3922;SDS011;1976;51.694;6.256;2024-01-11T13:55:50;11.20;;;5.60;;
3922;SDS011;1976;51.694;6.256;2024-01-11T13:58:16;11.13;;;5.63;;
3922;SDS011;1976;51.694;6.256;2024-01-11T14:00:43;17.27;;;6.60;;
3922;SDS011;1976;51.694;6.256;2024-01-11T14:03:09;12.60;;;6.50;;
3922;SDS011;1976;51.694;6.256;2024-01-11T14:05:36;13.87;;;5.77;;
3922;SDS011;1976;51.694;6.256;2024-01-11T14:08:02;11.70;;;6.00;;
3922;SDS011;1976;51.694;6.256;2024-01-11T14:10:30;21.03;;;6.83;;
3922;SDS011;1976;51.694;6.256;2024-01-11T14:12:57;13.03;;;6.50;;
3922;SDS011;1976;51.694;6.256;2024-01-11T14:15:23;17.40;;;5.60;;
3922;SDS011;1976;51.694;6.256;2024-01-11T14:17:49;21.73;;;6.67;;
3922;SDS011;1976;51.694;6.256;2024-01-11T14:20:15;16.87;;;7.00;;
3922;SDS011;1976;51.694;6.256;2024-01-11T14:22:41;11.63;;;6.57;;
3922;SDS011;1976;51.694;6.256;2024-01-11T14:25:12;16.93;;;7.07;;
3922;SDS011;1976;51.694;6.256;2024-01-11T14:27:37;16.57;;;7.87;;
3922;SDS011;1976;51.694;6.256;2024-01-11T14:30:04;12.93;;;6.30;;
3922;SDS011;1976;51.694;6.256;2024-01-11T14:32:31;19.53;;;7.23;;
3922;SDS011;1976;51.694;6.256;2024-01-11T14:34:57;17.47;;;6.97;;
3922;SDS011;1976;51.694;6.256;2024-01-11T14:37:22;14.17;;;6.17;;
3922;SDS011;1976;51.694;6.256;2024-01-11T14:39:48;16.73;;;7.50;;
3922;SDS011;1976;51.694;6.256;2024-01-11T14:42:13;14.27;;;7.50;;
3922;SDS011;1976;51.694;6.256;2024-01-11T14:44:39;13.13;;;7.00;;
3922;SDS011;1976;51.694;6.256;2024-01-11T14:47:05;14.30;;;6.60;;
3922;SDS011;1976;51.694;6.256;2024-01-11T14:49:32;15.83;;;7.77;;